Portada
METAR-TAF:

METAR-TAF

Aeroports :

Khartum, Sudan

latitud: 15-36N, longitud: 032-33E, altitud: 382 m

Observació

L'informe es va fer fa 18 minuts, a les 13:00 UTC
Vent 10 kt del Nord-Oest
Temperatura 42°C
Humitat 6%
Pressió 1003 hPa
Visibilitat 10 km o més
sense núvols per sota de 1500 mi sense presència de cumulonimbus.

METAR: HSSS 241300Z 31010KT CAVOK 42/M04 Q1003 NOSIG

Hora: 16:18 (13:18 UTC)

Pronòstic

L'informe es va fer fa 2 hores i 18 minuts, a les 11:00 UTC
Pronòstic vàlid del 24 a les 12 UTC al 25 a les 18 UTC
Vent 7 kt del Nord-Oest
Visibilitat: 6000 m
Evolucionant progressivament
l' 24 a les 12 UTC al 24 a les 14 UTC
Vent 14 kt del Nord/Nord-Oest amb ràfegues de 24 kt
Visibilitat: 3000 m
torb alta de sora

TAF: HSSS 241100Z 2412/2518 32007KT 6000 BECMG 2412/2414 3000 BLSA 33014G24KT

Observacions i pronòstics meteorològics de més de 4000 aeroports (METAR i TAF).

Les estacions disponibles són els punts grocs i vermells al mapa.

Posi el ratolí al punt desitjat per veure el nom de l'estació.

Feu clic per veure les observacions i els pronòstics meteorològics.

Per canviar el mapa: feu clic els botons verds amb una creu de color negre per apropar; al botó verd amb un guió per allunyar la imatge; o en les fletxes verdes per a mapes adjacents.


METAR-TAF: